Time;durP1;ratioP1;P1;durP2;ratioP2;P2;SDS_P1;SDS_P2;PMS_P1;PMS_P2;Temp;Humidity;BMP_temperature;BMP_pressure;BME280_temperature;BME280_humidity;BME280_pressure;Samples;Min_cycle;Max_cycle;Signal;HPM_P1;HPM_P2
2022/03/31 00:00:36;;;;;;;8.23;5.43;;;5.50;99.90;;;;;;5112184;27;20093;-79
2022/03/31 00:03:05;;;;;;;6.05;4.35;;;5.40;99.90;;;;;;5116961;27;20039;-79
2022/03/31 00:05:33;;;;;;;8.27;5.87;;;5.40;99.90;;;;;;5114271;27;20386;-78
2022/03/31 00:08:01;;;;;;;6.47;5.20;;;5.30;99.90;;;;;;5097510;27;20044;-79
2022/03/31 00:10:43;;;;;;;8.68;5.57;;;5.30;99.90;;;;;;5115721;27;20031;-79
2022/03/31 00:13:11;;;;;;;7.55;5.55;;;5.30;99.90;;;;;;5100309;27;20053;-79
2022/03/31 00:15:39;;;;;;;11.27;7.80;;;5.30;99.90;;;;;;5094753;27;20574;-79
2022/03/31 00:18:07;;;;;;;9.88;6.72;;;5.30;99.90;;;;;;5114460;27;20031;-78
2022/03/31 00:20:33;;;;;;;9.73;7.30;;;5.20;99.90;;;;;;5115731;27;20036;-80
2022/03/31 00:23:00;;;;;;;13.43;8.97;;;5.10;99.90;;;;;;5114025;27;20051;-79
2022/03/31 00:25:26;;;;;;;13.53;9.63;;;5.10;99.90;;;;;;5100724;27;20039;-78
2022/03/31 00:27:56;;;;;;;12.65;8.15;;;5.00;99.90;;;;;;5095232;27;20047;-79
2022/03/31 00:30:23;;;;;;;10.97;7.00;;;5.00;99.90;;;;;;5113655;27;20039;-80
2022/03/31 00:32:50;;;;;;;8.83;6.67;;;5.00;99.90;;;;;;5116882;27;20989;-81
2022/03/31 00:35:16;;;;;;;10.20;7.43;;;5.00;99.90;;;;;;5114286;27;20028;-80
2022/03/31 00:37:44;;;;;;;11.90;7.10;;;5.00;99.90;;;;;;5111898;27;20062;-81
2022/03/31 00:40:15;;;;;;;8.53;7.63;;;4.90;99.90;;;;;;5110642;27;20505;-80
2022/03/31 00:42:49;;;;;;;11.87;8.43;;;4.90;99.90;;;;;;5113508;27;20043;-79
2022/03/31 00:45:18;;;;;;;11.47;9.13;;;4.90;99.90;;;;;;5114199;27;20474;-79
2022/03/31 00:47:45;;;;;;;9.93;7.37;;;4.80;99.90;;;;;;5096935;27;20054;-78
2022/03/31 00:50:13;;;;;;;15.73;8.00;;;4.90;99.90;;;;;;5093489;28;20666;-78
2022/03/31 00:52:41;;;;;;;11.57;7.87;;;4.80;99.90;;;;;;5082460;27;20046;-80
2022/03/31 00:55:09;;;;;;;11.00;7.33;;;4.80;99.90;;;;;;5063895;27;20491;-80
2022/03/31 00:57:37;;;;;;;10.33;7.30;;;4.80;99.90;;;;;;5110981;27;20038;-81
2022/03/31 01:00:07;;;;;;;16.83;10.97;;;4.80;99.90;;;;;;5119271;27;20040;-79
2022/03/31 01:02:35;;;;;;;11.80;8.00;;;4.80;99.90;;;;;;5115260;27;20043;-79
2022/03/31 01:05:03;;;;;;;10.17;7.80;;;4.70;99.90;;;;;;5096323;27;20039;-80
2022/03/31 01:07:29;;;;;;;9.30;6.57;;;4.70;99.90;;;;;;5112418;27;20057;-80
2022/03/31 01:09:57;;;;;;;16.20;9.77;;;4.70;99.90;;;;;;5095874;27;20551;-80
2022/03/31 01:12:23;;;;;;;9.90;7.47;;;4.70;99.90;;;;;;5098606;27;20097;-79
2022/03/31 01:15:14;;;;;;;13.50;7.83;;;4.70;99.90;;;;;;5117060;27;20038;-79
2022/03/31 01:17:43;;;;;;;8.83;5.93;;;4.70;99.90;;;;;;5112463;27;20027;-80
2022/03/31 01:20:20;;;;;;;9.37;6.90;;;4.70;99.90;;;;;;5099294;28;20047;-79
2022/03/31 01:22:48;;;;;;;8.70;6.32;;;4.70;99.90;;;;;;5119754;27;20034;-80
2022/03/31 01:25:14;;;;;;;14.00;8.77;;;4.80;99.90;;;;;;5097102;28;20043;-80
2022/03/31 01:27:43;;;;;;;12.83;7.63;;;4.80;99.90;;;;;;5112107;27;20031;-79
2022/03/31 01:30:16;;;;;;;9.57;6.30;;;4.80;99.90;;;;;;5097471;27;20031;-79
2022/03/31 01:32:44;;;;;;;11.32;6.55;;;4.70;99.90;;;;;;5115740;27;20031;-80
2022/03/31 01:35:11;;;;;;;6.67;5.60;;;4.70;99.90;;;;;;5098795;27;20043;-80
2022/03/31 01:37:46;;;;;;;9.33;6.47;;;4.70;99.90;;;;;;5113170;27;20058;-80
2022/03/31 01:40:13;;;;;;;11.30;6.57;;;4.70;99.90;;;;;;5098139;28;20564;-79
2022/03/31 01:42:42;;;;;;;8.67;5.77;;;4.60;99.90;;;;;;5118256;27;20422;-80
2022/03/31 01:45:20;;;;;;;7.15;5.57;;;4.50;99.90;;;;;;5084938;27;20786;-79
2022/03/31 01:47:46;;;;;;;8.27;4.77;;;4.50;99.90;;;;;;5094237;28;20039;-79
2022/03/31 01:50:13;;;;;;;8.30;5.10;;;4.50;99.90;;;;;;5113708;27;20035;-79
2022/03/31 01:52:44;;;;;;;7.07;3.53;;;4.50;99.90;;;;;;5098308;28;20050;-79
2022/03/31 01:55:12;;;;;;;5.77;4.50;;;4.50;99.90;;;;;;5101713;28;20051;-78
2022/03/31 01:57:39;;;;;;;7.73;4.73;;;4.50;99.90;;;;;;5110897;28;20032;-79
2022/03/31 02:00:08;;;;;;;6.90;3.93;;;4.50;99.90;;;;;;5065856;28;20378;-79
2022/03/31 02:02:44;;;;;;;3.20;2.27;;;4.40;99.90;;;;;;5112619;28;20363;-78
2022/03/31 02:05:13;;;;;;;3.95;2.35;;;4.40;99.90;;;;;;5116577;28;20039;-80
2022/03/31 02:07:43;;;;;;;3.40;2.53;;;4.40;99.90;;;;;;5098420;28;20394;-79
2022/03/31 02:10:12;;;;;;;5.07;2.90;;;4.40;99.90;;;;;;5116238;28;20043;-80
2022/03/31 02:12:40;;;;;;;5.83;3.13;;;4.30;99.90;;;;;;5114386;28;20485;-79
2022/03/31 02:15:12;;;;;;;3.57;2.33;;;4.20;99.90;;;;;;5117870;28;20059;-81
2022/03/31 02:17:39;;;;;;;2.33;1.37;;;4.10;99.90;;;;;;5095158;28;20031;-79
2022/03/31 02:20:06;;;;;;;3.30;2.23;;;4.10;99.90;;;;;;5112164;28;20044;-80
2022/03/31 02:22:33;;;;;;;2.40;1.60;;;4.10;99.90;;;;;;5111550;28;20065;-80
2022/03/31 02:25:00;;;;;;;3.67;2.47;;;4.10;99.90;;;;;;5114405;28;20038;-79
2022/03/31 02:27:28;;;;;;;3.37;2.80;;;4.10;99.90;;;;;;5110912;28;20023;-80
2022/03/31 02:29:54;;;;;;;4.27;1.77;;;4.10;99.90;;;;;;5099104;28;20035;-79
2022/03/31 02:32:27;;;;;;;4.63;2.30;;;4.10;99.90;;;;;;5101286;27;20044;-79
2022/03/31 02:34:54;;;;;;;2.83;2.53;;;4.00;99.90;;;;;;5117040;27;20035;-80
2022/03/31 02:37:20;;;;;;;2.83;1.80;;;4.00;99.90;;;;;;5101610;27;20028;-79
2022/03/31 02:39:47;;;;;;;3.20;1.70;;;3.90;99.90;;;;;;5098541;28;20046;-79
2022/03/31 02:42:14;;;;;;;2.13;1.63;;;3.90;99.90;;;;;;5119112;27;20043;-79
2022/03/31 02:44:41;;;;;;;2.30;1.50;;;3.90;99.90;;;;;;5083888;27;20039;-79
2022/03/31 02:47:09;;;;;;;4.63;2.00;;;3.90;99.90;;;;;;5117609;27;20040;-80
2022/03/31 02:49:35;;;;;;;3.97;1.93;;;3.90;99.90;;;;;;5118737;27;20066;-78
2022/03/31 02:52:02;;;;;;;3.07;1.47;;;3.90;99.90;;;;;;5118018;27;20054;-78
2022/03/31 02:57:13;;;;;;;2.10;0.97;;;3.80;99.90;;;;;;5115924;27;20036;-79
2022/03/31 02:59:40;;;;;;;1.87;1.13;;;3.80;99.90;;;;;;5115699;27;20374;-79
2022/03/31 03:02:07;;;;;;;1.73;1.00;;;3.80;99.90;;;;;;5119362;27;20027;-79
2022/03/31 03:04:34;;;;;;;2.30;1.27;;;3.80;99.90;;;;;;5090498;27;20054;-79
2022/03/31 03:07:00;;;;;;;1.40;0.80;;;3.80;99.90;;;;;;5100856;28;20437;-79
2022/03/31 03:09:27;;;;;;;2.43;1.23;;;3.70;99.90;;;;;;5084396;27;20043;-79
2022/03/31 03:11:53;;;;;;;1.50;0.83;;;3.70;99.90;;;;;;5117080;27;20028;-79
2022/03/31 03:14:21;;;;;;;1.63;0.97;;;3.70;99.90;;;;;;5115084;27;20034;-79
2022/03/31 03:16:48;;;;;;;1.57;0.80;;;3.70;99.90;;;;;;5072241;27;20039;-80
2022/03/31 03:19:14;;;;;;;2.60;1.23;;;3.70;99.90;;;;;;5117284;27;20036;-80
2022/03/31 03:21:41;;;;;;;2.37;1.23;;;3.70;99.90;;;;;;5068515;27;20039;-80
2022/03/31 03:24:07;;;;;;;1.97;0.80;;;3.70;99.90;;;;;;5101116;27;20110;-80
2022/03/31 03:26:34;;;;;;;1.30;0.80;;;3.60;99.90;;;;;;5115803;27;20046;-80
2022/03/31 03:29:00;;;;;;;1.67;0.90;;;3.60;99.90;;;;;;5102267;27;20038;-80
2022/03/31 03:31:27;;;;;;;1.90;0.93;;;3.70;99.90;;;;;;5082267;27;20031;-79
2022/03/31 03:33:54;;;;;;;2.23;0.90;;;3.60;99.90;;;;;;5099187;27;20039;-80
2022/03/31 03:36:20;;;;;;;2.53;1.10;;;3.70;99.90;;;;;;5100368;27;20039;-81
2022/03/31 03:38:47;;;;;;;1.73;1.00;;;3.60;99.90;;;;;;5098170;27;20039;-80
2022/03/31 03:41:16;;;;;;;2.57;1.40;;;3.60;99.90;;;;;;5122803;27;20397;-80
2022/03/31 03:43:43;;;;;;;1.20;0.60;;;3.60;99.90;;;;;;5118368;27;20039;-80
2022/03/31 03:46:10;;;;;;;1.97;0.77;;;3.50;99.90;;;;;;5114283;27;20034;-79
2022/03/31 03:48:36;;;;;;;2.43;0.83;;;3.50;99.90;;;;;;5112022;27;20035;-80
2022/03/31 03:51:03;;;;;;;1.77;0.63;;;3.50;99.90;;;;;;5078818;27;20495;-79
2022/03/31 03:53:30;;;;;;;1.57;0.70;;;3.40;99.90;;;;;;5112132;27;20043;-79
2022/03/31 03:55:56;;;;;;;2.40;0.70;;;3.40;99.90;;;;;;5114599;27;20480;-80
2022/03/31 03:58:23;;;;;;;1.43;1.13;;;3.40;99.90;;;;;;5113106;27;20032;-80
2022/03/31 04:00:49;;;;;;;1.53;0.73;;;3.40;99.90;;;;;;5114665;27;20359;-80
2022/03/31 04:03:16;;;;;;;1.50;0.73;;;3.40;99.90;;;;;;5117244;27;20038;-80
2022/03/31 04:05:42;;;;;;;3.77;1.30;;;3.40;99.90;;;;;;5114122;27;20044;-79
2022/03/31 04:08:09;;;;;;;3.33;1.20;;;3.40;99.90;;;;;;5115019;27;20063;-80
2022/03/31 04:10:37;;;;;;;3.47;1.00;;;3.30;99.90;;;;;;5115458;27;20035;-79
2022/03/31 04:13:05;;;;;;;2.33;1.00;;;3.30;99.90;;;;;;5096853;28;20486;-79
2022/03/31 04:15:31;;;;;;;2.40;1.20;;;3.30;99.90;;;;;;5117506;27;20046;-79
2022/03/31 04:18:00;;;;;;;3.00;1.40;;;3.20;99.90;;;;;;5108925;27;20360;-79
2022/03/31 04:20:30;;;;;;;2.77;1.90;;;3.20;99.90;;;;;;5098780;27;20038;-78
2022/03/31 04:22:57;;;;;;;1.83;1.23;;;3.10;99.90;;;;;;5117389;27;20054;-78
2022/03/31 04:25:24;;;;;;;1.67;1.00;;;3.10;99.90;;;;;;5080654;27;20048;-79
2022/03/31 04:27:51;;;;;;;1.60;0.93;;;3.10;99.90;;;;;;5094850;27;20482;-79
2022/03/31 04:30:20;;;;;;;1.43;0.70;;;3.10;99.90;;;;;;5114315;27;20039;-79
2022/03/31 04:32:51;;;;;;;1.38;0.80;;;3.10;99.90;;;;;;5119455;27;20482;-78
2022/03/31 04:35:28;;;;;;;2.27;0.77;;;3.10;99.90;;;;;;5083594;27;20040;-79
2022/03/31 04:37:54;;;;;;;1.23;0.70;;;3.10;99.90;;;;;;5110875;27;20031;-80
2022/03/31 04:40:21;;;;;;;1.40;0.80;;;3.20;99.90;;;;;;5080553;27;20046;-80
2022/03/31 04:42:47;;;;;;;1.57;0.70;;;3.10;99.90;;;;;;5077219;28;20101;-79
2022/03/31 04:45:13;;;;;;;1.00;0.60;;;3.20;99.90;;;;;;5083138;27;20054;-78
2022/03/31 04:47:40;;;;;;;0.83;0.60;;;3.20;99.90;;;;;;5095597;27;20035;-78
2022/03/31 04:50:07;;;;;;;0.93;0.60;;;3.10;99.90;;;;;;5115197;27;20402;-77
2022/03/31 04:52:34;;;;;;;1.30;0.70;;;3.10;99.90;;;;;;5099616;27;20039;-78
2022/03/31 04:55:00;;;;;;;1.40;0.63;;;3.10;99.90;;;;;;5082358;28;20066;-78
2022/03/31 04:57:26;;;;;;;1.27;0.70;;;3.00;99.90;;;;;;5116659;27;20039;-78
2022/03/31 04:59:53;;;;;;;2.47;0.97;;;3.00;99.90;;;;;;5114487;27;20032;-78
2022/03/31 05:02:19;;;;;;;1.40;0.80;;;3.00;99.90;;;;;;5095709;27;20415;-79
2022/03/31 05:04:46;;;;;;;1.33;0.90;;;3.00;99.90;;;;;;5095680;27;20031;-79
2022/03/31 05:07:12;;;;;;;1.20;0.73;;;3.00;99.90;;;;;;5112488;27;20505;-79
2022/03/31 05:09:39;;;;;;;1.40;0.63;;;3.00;99.90;;;;;;5112763;27;20035;-78
2022/03/31 05:12:06;;;;;;;2.00;0.70;;;3.00;99.90;;;;;;5113022;27;20042;-79
2022/03/31 05:14:32;;;;;;;1.30;0.80;;;3.00;99.90;;;;;;5084375;28;20687;-78
2022/03/31 05:16:59;;;;;;;1.23;0.77;;;3.00;99.90;;;;;;5093193;28;20047;-78
2022/03/31 05:19:28;;;;;;;1.30;0.70;;;3.00;99.90;;;;;;5078668;27;20058;-78
2022/03/31 05:21:54;;;;;;;1.30;0.77;;;3.00;99.90;;;;;;5103290;27;20367;-78
2022/03/31 05:24:21;;;;;;;2.30;1.47;;;3.00;99.90;;;;;;5080429;27;20490;-78
2022/03/31 05:26:48;;;;;;;1.90;1.30;;;3.10;99.90;;;;;;5078911;28;20044;-79
2022/03/31 05:29:14;;;;;;;3.00;2.13;;;3.10;99.90;;;;;;5100659;27;20427;-79
2022/03/31 05:31:41;;;;;;;2.53;1.30;;;3.00;99.90;;;;;;5112846;28;20040;-80
2022/03/31 05:34:07;;;;;;;2.10;1.77;;;2.90;99.90;;;;;;5103783;28;20043;-79
2022/03/31 05:36:34;;;;;;;2.27;1.63;;;2.80;99.90;;;;;;5125655;27;20034;-79
2022/03/31 05:39:06;;;;;;;10.20;6.50;;;2.70;99.90;;;;;;5097122;28;20026;-81
2022/03/31 05:41:42;;;;;;;3.00;2.20;;;2.70;99.90;;;;;;5095357;28;20390;-81
2022/03/31 05:44:16;;;;;;;4.30;3.07;;;2.60;99.90;;;;;;5113635;27;20589;-81
2022/03/31 05:46:44;;;;;;;2.77;1.53;;;2.50;99.90;;;;;;5093934;28;20482;-81
2022/03/31 05:49:13;;;;;;;5.10;3.83;;;2.50;99.90;;;;;;5075899;28;20504;-80
2022/03/31 05:52:01;;;;;;;4.90;2.97;;;2.50;99.90;;;;;;5097933;28;20042;-83
2022/03/31 05:54:30;;;;;;;4.23;2.83;;;2.40;99.90;;;;;;5108291;28;20038;-83
2022/03/31 05:56:59;;;;;;;4.40;2.50;;;2.40;99.90;;;;;;5099441;28;20046;-84
2022/03/31 06:00:02;;;;;;;2.93;1.40;;;2.30;99.90;;;;;;5095321;28;20031;-83
2022/03/31 06:02:48;;;;;;;2.60;1.00;;;2.30;99.90;;;;;;5093078;28;20051;-82
2022/03/31 06:05:19;;;;;;;1.88;1.10;;;2.20;99.90;;;;;;5077791;28;20039;-79
2022/03/31 06:08:00;;;;;;;2.07;1.23;;;2.20;99.90;;;;;;5095356;28;20042;-80
2022/03/31 06:10:48;;;;;;;1.90;1.23;;;2.20;99.90;;;;;;5053551;28;20048;-83
2022/03/31 06:13:26;;;;;;;1.50;0.60;;;2.20;99.90;;;;;;5093453;28;20031;-80
2022/03/31 06:15:58;;;;;;;1.23;0.60;;;2.10;99.90;;;;;;5090289;28;20046;-79
2022/03/31 06:18:31;;;;;;;1.47;0.60;;;2.10;99.90;;;;;;5091809;28;20502;-79
2022/03/31 06:21:03;;;;;;;2.40;1.00;;;2.10;99.90;;;;;;5093181;28;20090;-79
2022/03/31 06:23:36;;;;;;;2.40;1.03;;;2.10;99.90;;;;;;5111073;28;20490;-79
2022/03/31 06:26:22;;;;;;;1.67;0.70;;;2.10;99.90;;;;;;5095847;28;20044;-79
2022/03/31 06:28:49;;;;;;;1.13;0.53;;;2.00;99.90;;;;;;5091755;28;20051;-79
2022/03/31 06:31:24;;;;;;;1.40;0.73;;;2.10;99.90;;;;;;5112603;28;20043;-78
2022/03/31 06:33:51;;;;;;;0.97;0.60;;;2.10;99.90;;;;;;5109309;28;20024;-77
2022/03/31 06:36:20;;;;;;;1.27;0.60;;;2.10;99.90;;;;;;5090826;28;20757;-78
2022/03/31 06:38:47;;;;;;;0.80;0.50;;;2.10;99.90;;;;;;5096720;28;20051;-77
2022/03/31 06:41:18;;;;;;;0.93;0.50;;;2.10;99.90;;;;;;5112888;28;20042;-77
2022/03/31 06:43:50;;;;;;;1.00;0.60;;;2.10;99.90;;;;;;5092027;28;20031;-78
2022/03/31 06:46:18;;;;;;;2.75;1.00;;;2.10;99.90;;;;;;5092915;28;20042;-77
2022/03/31 06:48:46;;;;;;;1.13;0.60;;;2.10;99.90;;;;;;5078373;28;20040;-77
2022/03/31 06:51:14;;;;;;;1.00;0.60;;;2.20;99.90;;;;;;5113645;28;20041;-77
2022/03/31 06:53:42;;;;;;;1.20;0.70;;;2.10;99.90;;;;;;5079335;28;20390;-77
2022/03/31 06:56:18;;;;;;;1.23;0.60;;;2.20;99.90;;;;;;5091949;28;20043;-77
2022/03/31 06:58:44;;;;;;;1.30;0.80;;;2.20;99.90;;;;;;5113252;28;20040;-77
2022/03/31 07:01:12;;;;;;;1.00;0.60;;;2.20;99.90;;;;;;5092181;28;20032;-77
2022/03/31 07:03:38;;;;;;;1.17;0.80;;;2.30;99.90;;;;;;5075757;28;20039;-77
2022/03/31 07:06:06;;;;;;;1.30;0.83;;;2.30;99.90;;;;;;5106913;28;20402;-77
2022/03/31 07:08:34;;;;;;;1.10;0.70;;;2.40;99.90;;;;;;5091602;28;20039;-77
2022/03/31 07:11:03;;;;;;;1.77;1.00;;;2.40;99.90;;;;;;5109783;28;20047;-77
2022/03/31 07:13:30;;;;;;;1.67;0.97;;;2.50;99.90;;;;;;5108832;28;20367;-80
2022/03/31 07:15:57;;;;;;;1.60;0.90;;;2.50;99.90;;;;;;5080796;28;20043;-82
2022/03/31 07:18:23;;;;;;;1.57;1.00;;;2.50;99.90;;;;;;5075416;27;20027;-80
2022/03/31 07:20:53;;;;;;;5.73;3.63;;;2.60;99.90;;;;;;5080572;27;20035;-84
2022/03/31 07:23:23;;;;;;;7.97;5.57;;;2.60;99.90;;;;;;5094883;27;20740;-78
2022/03/31 07:25:50;;;;;;;7.60;4.93;;;2.60;99.90;;;;;;5078360;27;20497;-86
2022/03/31 07:28:17;;;;;;;4.80;2.67;;;2.60;99.90;;;;;;5096893;27;20386;-79
2022/03/31 07:30:43;;;;;;;3.20;2.10;;;2.70;99.90;;;;;;5100122;27;20035;-80
2022/03/31 07:33:10;;;;;;;2.97;2.33;;;2.60;99.90;;;;;;5083936;27;20036;-79
2022/03/31 07:35:42;;;;;;;5.57;4.07;;;2.70;99.90;;;;;;5116188;27;20502;-78
2022/03/31 07:38:08;;;;;;;8.57;5.75;;;2.70;99.90;;;;;;5100009;27;20042;-80
2022/03/31 07:40:37;;;;;;;13.80;8.77;;;2.70;99.90;;;;;;5101675;28;20032;-78
2022/03/31 07:43:05;;;;;;;4.93;4.00;;;2.70;99.90;;;;;;5113527;27;20023;-83
2022/03/31 07:45:36;;;;;;;2.70;2.10;;;2.80;99.90;;;;;;5061340;27;20035;-87
2022/03/31 07:48:07;;;;;;;2.00;1.60;;;2.80;99.90;;;;;;5113307;27;20043;-81
2022/03/31 07:50:34;;;;;;;2.20;1.80;;;2.80;99.90;;;;;;5098631;27;20144;-82
2022/03/31 07:53:01;;;;;;;1.50;1.10;;;2.80;99.90;;;;;;5087747;27;20039;-82
2022/03/31 07:55:28;;;;;;;1.37;0.90;;;2.90;99.90;;;;;;5101839;27;20072;-82
2022/03/31 07:57:54;;;;;;;2.13;1.37;;;3.00;99.90;;;;;;5064192;27;20031;-82
2022/03/31 08:00:21;;;;;;;1.87;1.20;;;3.00;99.90;;;;;;5065715;27;20039;-82
2022/03/31 08:02:50;;;;;;;1.80;1.50;;;3.00;99.90;;;;;;5098397;27;20046;-82
2022/03/31 08:05:23;;;;;;;1.57;1.00;;;3.10;99.90;;;;;;5099537;27;20051;-81
2022/03/31 08:07:50;;;;;;;2.42;1.65;;;3.10;99.90;;;;;;5077027;27;20054;-80
2022/03/31 08:10:21;;;;;;;1.40;0.83;;;3.10;99.90;;;;;;5115819;27;20075;-83
2022/03/31 08:12:51;;;;;;;2.13;1.00;;;3.10;99.90;;;;;;5082738;27;20043;-85
2022/03/31 08:15:23;;;;;;;2.07;1.47;;;3.00;99.90;;;;;;5113409;27;20518;-82
2022/03/31 08:17:58;;;;;;;1.60;1.17;;;3.10;99.90;;;;;;5096438;27;20019;-84
2022/03/31 08:20:25;;;;;;;2.30;1.77;;;3.00;99.90;;;;;;5099975;27;20043;-83
2022/03/31 08:22:55;;;;;;;2.10;1.40;;;3.10;99.90;;;;;;5085623;27;20046;-86
2022/03/31 08:25:22;;;;;;;4.43;3.23;;;3.20;99.90;;;;;;5113441;27;20039;-82
2022/03/31 08:27:50;;;;;;;9.47;5.53;;;3.20;99.90;;;;;;5110532;27;20020;-82
2022/03/31 08:30:19;;;;;;;4.80;3.57;;;3.20;99.90;;;;;;5096769;28;20042;-82
2022/03/31 08:32:46;;;;;;;3.13;2.83;;;3.20;99.90;;;;;;5111296;28;20047;-81
2022/03/31 08:35:14;;;;;;;2.67;2.30;;;3.30;99.90;;;;;;5094268;28;20513;-83
2022/03/31 08:37:41;;;;;;;4.90;3.80;;;3.30;99.90;;;;;;5093961;28;20351;-83
2022/03/31 08:40:11;;;;;;;2.00;1.53;;;3.20;99.90;;;;;;5095188;28;20501;-86
2022/03/31 08:42:39;;;;;;;2.07;1.53;;;3.20;99.90;;;;;;5077779;28;20058;-86
2022/03/31 08:45:10;;;;;;;2.10;1.70;;;3.20;99.90;;;;;;5075050;27;20039;-86
2022/03/31 08:47:39;;;;;;;3.80;3.40;;;3.20;99.90;;;;;;5109729;28;20050;-86
2022/03/31 08:50:11;;;;;;;2.23;1.67;;;3.20;99.90;;;;;;5076939;28;20039;-88
2022/03/31 08:52:40;;;;;;;2.53;1.70;;;3.10;99.90;;;;;;5078454;28;20090;-87
2022/03/31 08:55:12;;;;;;;2.50;2.07;;;3.10;99.90;;;;;;5075275;28;20051;-87
2022/03/31 08:57:44;;;;;;;5.00;4.43;;;3.10;99.90;;;;;;5092789;28;20040;-85
2022/03/31 09:00:13;;;;;;;2.70;2.50;;;3.10;99.90;;;;;;5096656;28;20042;-86
2022/03/31 09:02:51;;;;;;;8.43;6.53;;;3.10;99.90;;;;;;5093520;28;20058;-86
2022/03/31 09:05:17;;;;;;;5.27;4.13;;;3.10;99.90;;;;;;5075592;28;20378;-88
2022/03/31 09:08:00;;;;;;;7.03;5.20;;;3.00;99.90;;;;;;5093473;28;20039;-85
2022/03/31 09:10:48;;;;;;;4.97;4.37;;;3.10;99.90;;;;;;5110197;28;20042;-86
2022/03/31 09:13:28;;;;;;;3.20;2.70;;;3.00;99.90;;;;;;5110866;27;20032;-84
2022/03/31 09:19:44;;;;;;;2.60;2.20;;;3.00;99.90;;;;;;5092455;28;20040;-85
2022/03/31 09:22:21;;;;;;;2.30;2.00;;;3.00;99.90;;;;;;5096344;27;20023;-86
2022/03/31 09:28:38;;;;;;;2.97;1.80;;;3.00;99.90;;;;;;5108572;27;20066;-86
2022/03/31 09:31:24;;;;;;;2.03;1.67;;;3.00;99.90;;;;;;5098095;27;20046;-87
2022/03/31 09:33:56;;;;;;;2.73;2.00;;;3.00;99.90;;;;;;5094505;27;20051;-86
2022/03/31 09:36:26;;;;;;;2.20;1.58;;;3.00;99.90;;;;;;5100558;27;20050;-87
2022/03/31 09:39:04;;;;;;;3.25;2.67;;;3.00;99.90;;;;;;5078052;27;20051;-88
2022/03/31 09:41:38;;;;;;;2.10;1.90;;;3.00;99.90;;;;;;5096024;28;20046;-88
2022/03/31 09:44:12;;;;;;;2.10;1.90;;;2.90;99.90;;;;;;5077378;28;20019;-87
2022/03/31 09:46:40;;;;;;;2.37;1.63;;;2.90;99.90;;;;;;5095246;28;20593;-87
2022/03/31 09:49:23;;;;;;;2.40;2.20;;;2.90;99.90;;;;;;5079113;27;20023;-88
2022/03/31 09:51:56;;;;;;;3.33;2.50;;;2.90;99.90;;;;;;5111642;27;20031;-87
2022/03/31 09:54:32;;;;;;;2.40;1.90;;;2.90;99.90;;;;;;5109035;27;20036;-87
2022/03/31 09:57:03;;;;;;;2.37;2.17;;;2.80;99.90;;;;;;5081068;27;20051;-87
2022/03/31 09:59:41;;;;;;;2.37;1.87;;;2.80;99.90;;;;;;5095807;28;20398;-89
2022/03/31 10:02:09;;;;;;;3.40;3.07;;;2.90;99.90;;;;;;5095565;28;20046;-87
2022/03/31 10:04:42;;;;;;;3.50;3.10;;;2.90;99.90;;;;;;5099054;28;20043;-87
2022/03/31 10:07:10;;;;;;;2.43;1.90;;;2.90;99.90;;;;;;5091832;28;20612;-86
2022/03/31 10:09:39;;;;;;;9.70;5.17;;;2.90;99.90;;;;;;5059171;28;20043;-86
2022/03/31 10:12:15;;;;;;;7.57;5.70;;;3.00;99.90;;;;;;5078727;28;20071;-86
2022/03/31 10:15:01;;;;;;;9.90;6.67;;;3.00;99.90;;;;;;5095369;28;20035;-85
2022/03/31 10:17:29;;;;;;;5.13;4.13;;;3.00;99.90;;;;;;5110438;28;20031;-84
2022/03/31 10:20:13;;;;;;;3.00;2.00;;;3.00;99.90;;;;;;5077902;28;20466;-86
2022/03/31 10:25:38;;;;;;;2.20;1.90;;;3.10;99.90;;;;;;5090016;28;20035;-84
2022/03/31 10:28:10;;;;;;;1.93;1.63;;;3.10;99.90;;;;;;5109874;28;20043;-83
2022/03/31 10:30:37;;;;;;;2.25;2.05;;;3.10;99.90;;;;;;5111008;28;20035;-85
2022/03/31 10:33:10;;;;;;;1.93;1.53;;;3.10;99.90;;;;;;5093753;28;20406;-81
2022/03/31 10:35:40;;;;;;;3.27;2.27;;;3.10;99.90;;;;;;5091568;28;21314;-83
2022/03/31 10:38:17;;;;;;;4.83;2.90;;;3.10;99.90;;;;;;5092570;28;20409;-83
2022/03/31 10:41:01;;;;;;;8.13;5.30;;;3.10;99.90;;;;;;5095632;28;20035;-83
2022/03/31 10:43:31;;;;;;;3.87;3.00;;;3.20;99.90;;;;;;5092703;28;20031;-82
2022/03/31 10:46:00;;;;;;;2.50;1.90;;;3.20;99.90;;;;;;5090954;28;20040;-83
2022/03/31 10:48:31;;;;;;;2.50;1.77;;;3.20;99.90;;;;;;5087802;28;20032;-83
2022/03/31 10:51:08;;;;;;;1.60;1.10;;;3.20;99.90;;;;;;5107251;28;20489;-83
2022/03/31 10:53:38;;;;;;;1.77;1.40;;;3.20;99.90;;;;;;5089607;28;20035;-82
2022/03/31 10:56:24;;;;;;;1.40;0.90;;;3.20;99.90;;;;;;5098821;27;20498;-82
2022/03/31 10:59:00;;;;;;;2.17;1.40;;;3.30;99.90;;;;;;5111727;27;20031;-83
2022/03/31 11:01:30;;;;;;;2.30;1.80;;;3.30;99.90;;;;;;5082504;27;20505;-83
2022/03/31 11:04:06;;;;;;;1.50;1.10;;;3.40;99.90;;;;;;5099860;27;20515;-83
2022/03/31 11:06:43;;;;;;;1.60;1.03;;;3.30;99.90;;;;;;5097114;27;20492;-83
2022/03/31 11:09:20;;;;;;;2.10;1.33;;;3.40;99.90;;;;;;5078640;27;20399;-83
2022/03/31 11:11:51;;;;;;;1.50;1.10;;;3.40;99.90;;;;;;5098717;27;20895;-84
2022/03/31 11:14:18;;;;;;;1.70;1.27;;;3.40;99.90;;;;;;5084767;27;20055;-83
2022/03/31 11:16:45;;;;;;;1.73;1.17;;;3.30;99.90;;;;;;5113134;27;20030;-84
2022/03/31 11:19:13;;;;;;;2.40;0.90;;;3.40;99.90;;;;;;5094669;27;20032;-84
2022/03/31 11:21:42;;;;;;;1.80;1.40;;;3.50;99.90;;;;;;5118280;27;20027;-86
2022/03/31 11:24:10;;;;;;;1.60;1.10;;;3.50;99.90;;;;;;5097463;27;20028;-83
2022/03/31 11:26:44;;;;;;;7.17;5.00;;;3.50;99.90;;;;;;5111570;27;20031;-83
2022/03/31 11:29:16;;;;;;;7.47;5.20;;;3.60;99.90;;;;;;5111569;27;20039;-84
2022/03/31 11:31:50;;;;;;;3.70;3.10;;;3.60;99.90;;;;;;5080005;27;20035;-83
2022/03/31 11:34:19;;;;;;;7.97;4.20;;;3.60;99.90;;;;;;5098115;27;20027;-83
2022/03/31 11:36:53;;;;;;;2.07;1.70;;;3.60;99.90;;;;;;5096669;27;20514;-82
2022/03/31 11:39:30;;;;;;;1.80;0.90;;;3.60;99.90;;;;;;5093781;27;20035;-81
2022/03/31 11:42:00;;;;;;;1.63;1.13;;;3.60;99.90;;;;;;5111792;27;20043;-87
2022/03/31 11:44:30;;;;;;;2.20;1.50;;;3.60;99.90;;;;;;5094129;27;20046;-82
2022/03/31 11:46:56;;;;;;;2.00;1.53;;;3.60;99.90;;;;;;5110128;27;20040;-82
2022/03/31 11:49:25;;;;;;;12.77;8.17;;;3.60;99.90;;;;;;5076621;27;20043;-82
2022/03/31 11:52:01;;;;;;;9.23;5.80;;;3.60;99.90;;;;;;5078476;27;20028;-82
2022/03/31 11:54:30;;;;;;;10.63;6.80;;;3.60;99.90;;;;;;5095639;27;20039;-82
2022/03/31 11:57:05;;;;;;;10.20;6.03;;;3.60;99.90;;;;;;5090822;27;20031;-82
2022/03/31 11:59:32;;;;;;;3.23;2.10;;;3.60;99.90;;;;;;5110543;27;20035;-81
2022/03/31 12:01:58;;;;;;;1.60;0.80;;;3.60;99.90;;;;;;5089702;27;20395;-81
2022/03/31 12:04:28;;;;;;;1.20;0.70;;;3.50;99.90;;;;;;5094434;28;20032;-82
2022/03/31 12:06:56;;;;;;;2.20;1.00;;;3.50;99.90;;;;;;5114374;27;20035;-82
2022/03/31 12:09:26;;;;;;;1.63;1.07;;;3.50;99.90;;;;;;5093115;28;20046;-81
2022/03/31 12:11:54;;;;;;;1.37;0.80;;;3.50;99.90;;;;;;5117974;27;20032;-82
2022/03/31 12:14:20;;;;;;;1.50;0.70;;;3.50;99.90;;;;;;5115822;27;20031;-82
2022/03/31 12:16:50;;;;;;;1.10;0.70;;;3.40;99.90;;;;;;5114401;27;20020;-82
2022/03/31 12:19:17;;;;;;;1.40;0.63;;;3.40;99.90;;;;;;5097608;27;20046;-84
2022/03/31 12:21:56;;;;;;;1.67;0.97;;;3.30;99.90;;;;;;5111568;27;20047;-83
2022/03/31 12:24:31;;;;;;;1.23;0.90;;;3.30;99.90;;;;;;5097698;28;20043;-82
2022/03/31 12:27:05;;;;;;;1.30;0.87;;;3.20;99.90;;;;;;5078620;28;20035;-83
2022/03/31 12:29:33;;;;;;;1.53;0.93;;;3.20;99.90;;;;;;5112763;27;20398;-82
2022/03/31 12:32:02;;;;;;;1.30;0.77;;;3.20;99.90;;;;;;5093374;27;20031;-82
2022/03/31 12:34:31;;;;;;;1.73;0.90;;;3.30;99.90;;;;;;5111081;27;20051;-82
2022/03/31 12:36:58;;;;;;;1.10;0.60;;;3.30;99.90;;;;;;5110672;27;20513;-83
2022/03/31 12:39:24;;;;;;;1.23;0.83;;;3.20;99.90;;;;;;5076587;27;20394;-82
2022/03/31 12:41:55;;;;;;;1.50;1.30;;;3.20;99.90;;;;;;5108386;27;20394;-82
2022/03/31 12:44:25;;;;;;;1.90;0.70;;;3.30;99.90;;;;;;5108870;27;20035;-82
2022/03/31 12:46:52;;;;;;;1.40;1.00;;;3.20;99.90;;;;;;5095329;27;20096;-82
2022/03/31 12:49:24;;;;;;;1.00;0.57;;;3.20;99.90;;;;;;5108963;27;20739;-82
2022/03/31 12:51:58;;;;;;;1.35;0.65;;;3.30;99.90;;;;;;5079069;27;20363;-81
2022/03/31 12:54:32;;;;;;;1.17;0.70;;;3.30;99.90;;;;;;5092360;27;20020;-81
2022/03/31 12:57:01;;;;;;;1.37;0.93;;;3.40;99.90;;;;;;5107751;27;20059;-82
2022/03/31 12:59:32;;;;;;;1.30;0.90;;;3.40;99.90;;;;;;5090527;28;20036;-82
2022/03/31 13:02:13;;;;;;;2.37;0.83;;;3.40;99.90;;;;;;5106603;27;20031;-84
2022/03/31 13:04:46;;;;;;;1.67;1.20;;;3.50;99.90;;;;;;5078906;27;20043;-84
2022/03/31 13:07:15;;;;;;;2.23;0.90;;;3.50;99.90;;;;;;5059575;28;20043;-84
2022/03/31 13:09:43;;;;;;;8.77;5.33;;;3.60;99.90;;;;;;5091082;28;20042;-83
2022/03/31 13:12:10;;;;;;;5.60;4.07;;;3.60;99.90;;;;;;5076141;27;20042;-79
2022/03/31 13:14:38;;;;;;;15.97;11.50;;;3.60;99.90;;;;;;5074992;27;20363;-80
2022/03/31 13:17:06;;;;;;;3.77;2.30;;;3.60;99.90;;;;;;5097133;28;20036;-80
2022/03/31 13:19:33;;;;;;;1.73;1.20;;;3.60;99.90;;;;;;5093838;27;20047;-78
2022/03/31 13:22:01;;;;;;;1.77;0.90;;;3.60;99.90;;;;;;5111046;27;20505;-82